sensor_id;sensor_type;location;lat;lon;timestamp;pressure;altitude;pressure_sealevel;temperature;humidity
58473;BME280;44775;51.564;5.460;2024-03-22T00:00:57;101849.66;;;10.81;100.00
58473;BME280;44775;51.564;5.460;2024-03-22T00:03:22;101848.53;;;10.83;100.00
58473;BME280;44775;51.564;5.460;2024-03-22T00:05:47;101843.19;;;10.83;100.00
58473;BME280;44775;51.564;5.460;2024-03-22T00:08:12;101846.69;;;10.84;100.00
58473;BME280;44775;51.564;5.460;2024-03-22T00:10:38;101840.78;;;10.90;100.00
58473;BME280;44775;51.564;5.460;2024-03-22T00:13:03;101837.94;;;10.92;100.00
58473;BME280;44775;51.564;5.460;2024-03-22T00:15:28;101841.59;;;10.91;100.00
58473;BME280;44775;51.564;5.460;2024-03-22T00:17:53;101840.44;;;10.93;100.00
58473;BME280;44775;51.564;5.460;2024-03-22T00:20:19;101834.81;;;10.96;100.00
58473;BME280;44775;51.564;5.460;2024-03-22T00:22:44;101835.34;;;11.00;100.00
58473;BME280;44775;51.564;5.460;2024-03-22T00:25:10;101834.94;;;11.04;100.00
58473;BME280;44775;51.564;5.460;2024-03-22T00:27:35;101820.84;;;11.02;100.00
58473;BME280;44775;51.564;5.460;2024-03-22T00:30:00;101828.75;;;11.04;100.00
58473;BME280;44775;51.564;5.460;2024-03-22T00:32:26;101828.03;;;11.02;100.00
58473;BME280;44775;51.564;5.460;2024-03-22T00:34:51;101828.59;;;11.05;100.00
58473;BME280;44775;51.564;5.460;2024-03-22T00:37:16;101816.88;;;11.06;100.00
58473;BME280;44775;51.564;5.460;2024-03-22T00:39:42;101811.94;;;11.11;100.00
58473;BME280;44775;51.564;5.460;2024-03-22T00:42:07;101808.81;;;11.16;100.00
58473;BME280;44775;51.564;5.460;2024-03-22T00:44:32;101801.94;;;11.14;100.00
58473;BME280;44775;51.564;5.460;2024-03-22T00:46:57;101797.56;;;11.13;100.00
58473;BME280;44775;51.564;5.460;2024-03-22T00:49:24;101787.56;;;11.15;100.00
58473;BME280;44775;51.564;5.460;2024-03-22T00:51:49;101788.25;;;11.17;100.00
58473;BME280;44775;51.564;5.460;2024-03-22T00:54:14;101778.72;;;11.14;100.00
58473;BME280;44775;51.564;5.460;2024-03-22T00:56:40;101768.69;;;11.16;100.00
58473;BME280;44775;51.564;5.460;2024-03-22T00:59:05;101762.75;;;11.22;100.00
58473;BME280;44775;51.564;5.460;2024-03-22T01:01:31;101754.13;;;11.28;100.00
58473;BME280;44775;51.564;5.460;2024-03-22T01:03:56;101755.97;;;11.28;100.00
58473;BME280;44775;51.564;5.460;2024-03-22T01:06:22;101746.56;;;11.24;100.00
58473;BME280;44775;51.564;5.460;2024-03-22T01:08:51;101747.22;;;11.26;100.00
58473;BME280;44775;51.564;5.460;2024-03-22T01:11:17;101744.19;;;11.21;100.00
58473;BME280;44775;51.564;5.460;2024-03-22T01:13:42;101740.88;;;11.27;100.00
58473;BME280;44775;51.564;5.460;2024-03-22T01:16:07;101742.13;;;11.32;100.00
58473;BME280;44775;51.564;5.460;2024-03-22T01:18:33;101728.78;;;11.23;100.00
58473;BME280;44775;51.564;5.460;2024-03-22T01:20:58;101728.25;;;11.19;100.00
58473;BME280;44775;51.564;5.460;2024-03-22T01:23:23;101732.84;;;11.27;100.00
58473;BME280;44775;51.564;5.460;2024-03-22T01:25:49;101729.88;;;11.30;100.00
58473;BME280;44775;51.564;5.460;2024-03-22T01:28:14;101752.56;;;11.26;100.00
58473;BME280;44775;51.564;5.460;2024-03-22T01:30:40;101732.13;;;11.34;100.00
58473;BME280;44775;51.564;5.460;2024-03-22T01:33:05;101732.78;;;11.37;100.00
58473;BME280;44775;51.564;5.460;2024-03-22T01:35:30;101733.19;;;11.42;100.00
58473;BME280;44775;51.564;5.460;2024-03-22T01:37:56;101715.44;;;11.41;100.00
58473;BME280;44775;51.564;5.460;2024-03-22T01:40:21;101713.16;;;11.28;100.00
58473;BME280;44775;51.564;5.460;2024-03-22T01:42:46;101709.53;;;11.37;100.00
58473;BME280;44775;51.564;5.460;2024-03-22T01:45:12;101710.47;;;11.28;100.00
58473;BME280;44775;51.564;5.460;2024-03-22T01:47:38;101713.75;;;11.22;100.00
58473;BME280;44775;51.564;5.460;2024-03-22T01:50:04;101701.06;;;11.24;100.00
58473;BME280;44775;51.564;5.460;2024-03-22T01:52:29;101706.97;;;11.27;100.00
58473;BME280;44775;51.564;5.460;2024-03-22T01:54:55;101699.31;;;11.15;100.00
58473;BME280;44775;51.564;5.460;2024-03-22T01:57:20;101709.84;;;11.16;100.00
58473;BME280;44775;51.564;5.460;2024-03-22T01:59:45;101719.00;;;11.14;100.00
58473;BME280;44775;51.564;5.460;2024-03-22T02:02:13;101719.31;;;11.10;100.00
58473;BME280;44775;51.564;5.460;2024-03-22T02:04:38;101718.63;;;11.08;100.00
58473;BME280;44775;51.564;5.460;2024-03-22T02:07:03;101707.09;;;11.08;100.00
58473;BME280;44775;51.564;5.460;2024-03-22T02:09:28;101710.34;;;11.02;100.00
58473;BME280;44775;51.564;5.460;2024-03-22T02:11:54;101706.31;;;11.16;100.00
58473;BME280;44775;51.564;5.460;2024-03-22T02:14:19;101708.69;;;11.01;100.00
58473;BME280;44775;51.564;5.460;2024-03-22T02:16:44;101706.44;;;10.96;100.00
58473;BME280;44775;51.564;5.460;2024-03-22T02:19:10;101704.47;;;10.98;100.00
58473;BME280;44775;51.564;5.460;2024-03-22T02:21:35;101706.31;;;10.98;100.00
58473;BME280;44775;51.564;5.460;2024-03-22T02:24:00;101697.19;;;10.91;100.00
58473;BME280;44775;51.564;5.460;2024-03-22T02:26:26;101699.34;;;10.87;100.00
58473;BME280;44775;51.564;5.460;2024-03-22T02:28:51;101700.75;;;10.81;100.00
58473;BME280;44775;51.564;5.460;2024-03-22T02:31:16;101692.03;;;10.79;100.00
58473;BME280;44775;51.564;5.460;2024-03-22T02:33:41;101690.63;;;10.85;100.00
58473;BME280;44775;51.564;5.460;2024-03-22T02:36:06;101694.47;;;10.73;100.00
58473;BME280;44775;51.564;5.460;2024-03-22T02:38:32;101692.34;;;10.76;100.00
58473;BME280;44775;51.564;5.460;2024-03-22T02:40:57;101693.88;;;10.79;100.00
58473;BME280;44775;51.564;5.460;2024-03-22T02:43:23;101688.16;;;10.74;100.00
58473;BME280;44775;51.564;5.460;2024-03-22T02:45:48;101686.88;;;10.96;100.00
58473;BME280;44775;51.564;5.460;2024-03-22T02:48:13;101677.47;;;10.74;100.00
58473;BME280;44775;51.564;5.460;2024-03-22T02:50:38;101668.44;;;10.75;100.00
58473;BME280;44775;51.564;5.460;2024-03-22T02:53:04;101667.63;;;10.92;100.00
58473;BME280;44775;51.564;5.460;2024-03-22T02:55:30;101654.78;;;10.78;100.00
58473;BME280;44775;51.564;5.460;2024-03-22T02:57:58;101648.97;;;10.82;100.00
58473;BME280;44775;51.564;5.460;2024-03-22T03:00:23;101639.88;;;10.75;100.00
58473;BME280;44775;51.564;5.460;2024-03-22T03:02:49;101634.53;;;10.75;100.00
58473;BME280;44775;51.564;5.460;2024-03-22T03:05:14;101632.16;;;10.72;100.00
58473;BME280;44775;51.564;5.460;2024-03-22T03:07:39;101633.16;;;10.71;100.00
58473;BME280;44775;51.564;5.460;2024-03-22T03:10:05;101640.34;;;10.71;100.00
58473;BME280;44775;51.564;5.460;2024-03-22T03:12:31;101639.03;;;10.75;100.00
58473;BME280;44775;51.564;5.460;2024-03-22T03:14:56;101631.22;;;10.63;100.00
58473;BME280;44775;51.564;5.460;2024-03-22T03:17:21;101617.47;;;10.58;100.00
58473;BME280;44775;51.564;5.460;2024-03-22T03:19:48;101620.53;;;10.63;100.00
58473;BME280;44775;51.564;5.460;2024-03-22T03:22:13;101622.13;;;10.56;100.00
58473;BME280;44775;51.564;5.460;2024-03-22T03:24:38;101611.81;;;10.61;100.00
58473;BME280;44775;51.564;5.460;2024-03-22T03:27:03;101606.88;;;10.67;100.00
58473;BME280;44775;51.564;5.460;2024-03-22T03:29:29;101601.59;;;10.57;100.00
58473;BME280;44775;51.564;5.460;2024-03-22T03:31:54;101595.59;;;10.45;100.00
58473;BME280;44775;51.564;5.460;2024-03-22T03:34:19;101586.22;;;10.59;100.00
58473;BME280;44775;51.564;5.460;2024-03-22T03:36:45;101586.38;;;10.39;100.00
58473;BME280;44775;51.564;5.460;2024-03-22T03:39:10;101591.53;;;10.41;100.00
58473;BME280;44775;51.564;5.460;2024-03-22T03:41:36;101594.47;;;10.48;100.00
58473;BME280;44775;51.564;5.460;2024-03-22T03:44:01;101584.81;;;10.37;100.00
58473;BME280;44775;51.564;5.460;2024-03-22T03:46:26;101585.78;;;10.36;100.00
58473;BME280;44775;51.564;5.460;2024-03-22T03:48:51;101583.28;;;10.34;100.00
58473;BME280;44775;51.564;5.460;2024-03-22T03:51:17;101578.47;;;10.38;100.00
58473;BME280;44775;51.564;5.460;2024-03-22T03:53:42;101567.84;;;10.28;100.00
58473;BME280;44775;51.564;5.460;2024-03-22T03:56:07;101577.13;;;10.24;100.00
58473;BME280;44775;51.564;5.460;2024-03-22T03:58:32;101567.28;;;10.25;100.00
58473;BME280;44775;51.564;5.460;2024-03-22T04:00:57;101570.09;;;10.23;100.00
58473;BME280;44775;51.564;5.460;2024-03-22T04:03:23;101564.91;;;10.22;100.00
58473;BME280;44775;51.564;5.460;2024-03-22T04:05:56;101555.31;;;10.29;100.00
58473;BME280;44775;51.564;5.460;2024-03-22T04:08:21;101560.00;;;10.27;100.00
58473;BME280;44775;51.564;5.460;2024-03-22T04:10:51;101556.34;;;10.18;100.00
58473;BME280;44775;51.564;5.460;2024-03-22T04:13:16;101560.00;;;10.17;100.00
58473;BME280;44775;51.564;5.460;2024-03-22T04:15:42;101553.84;;;10.16;100.00
58473;BME280;44775;51.564;5.460;2024-03-22T04:18:07;101554.50;;;10.18;100.00
58473;BME280;44775;51.564;5.460;2024-03-22T04:20:32;101556.22;;;10.20;100.00
58473;BME280;44775;51.564;5.460;2024-03-22T04:22:57;101561.69;;;10.18;100.00
58473;BME280;44775;51.564;5.460;2024-03-22T04:25:22;101564.06;;;10.21;100.00
58473;BME280;44775;51.564;5.460;2024-03-22T04:27:47;101568.38;;;10.32;100.00
58473;BME280;44775;51.564;5.460;2024-03-22T04:30:13;101561.94;;;10.25;100.00
58473;BME280;44775;51.564;5.460;2024-03-22T04:32:38;101562.81;;;10.15;100.00
58473;BME280;44775;51.564;5.460;2024-03-22T04:35:03;101560.97;;;10.26;100.00
58473;BME280;44775;51.564;5.460;2024-03-22T04:37:29;101552.66;;;10.19;100.00
58473;BME280;44775;51.564;5.460;2024-03-22T04:39:54;101559.19;;;10.16;100.00
58473;BME280;44775;51.564;5.460;2024-03-22T04:42:19;101563.34;;;10.19;100.00
58473;BME280;44775;51.564;5.460;2024-03-22T04:44:44;101556.63;;;10.15;100.00
58473;BME280;44775;51.564;5.460;2024-03-22T04:47:09;101563.97;;;10.13;100.00
58473;BME280;44775;51.564;5.460;2024-03-22T04:49:35;101562.75;;;10.25;100.00
58473;BME280;44775;51.564;5.460;2024-03-22T04:52:00;101557.41;;;10.25;100.00
58473;BME280;44775;51.564;5.460;2024-03-22T04:54:25;101552.59;;;10.11;100.00
58473;BME280;44775;51.564;5.460;2024-03-22T04:56:50;101551.75;;;10.10;100.00
58473;BME280;44775;51.564;5.460;2024-03-22T04:59:16;101543.75;;;10.10;100.00
58473;BME280;44775;51.564;5.460;2024-03-22T05:01:42;101534.59;;;10.13;100.00
58473;BME280;44775;51.564;5.460;2024-03-22T05:04:09;101546.13;;;10.13;100.00
58473;BME280;44775;51.564;5.460;2024-03-22T05:06:34;101534.06;;;10.09;100.00
58473;BME280;44775;51.564;5.460;2024-03-22T05:08:59;101542.84;;;10.20;100.00
58473;BME280;44775;51.564;5.460;2024-03-22T05:11:24;101530.75;;;10.15;100.00
58473;BME280;44775;51.564;5.460;2024-03-22T05:13:50;101540.31;;;10.18;100.00
58473;BME280;44775;51.564;5.460;2024-03-22T05:16:15;101538.66;;;10.17;100.00
58473;BME280;44775;51.564;5.460;2024-03-22T05:18:40;101531.47;;;10.17;100.00
58473;BME280;44775;51.564;5.460;2024-03-22T05:21:05;101529.25;;;10.13;100.00
58473;BME280;44775;51.564;5.460;2024-03-22T05:23:31;101528.56;;;10.11;100.00
58473;BME280;44775;51.564;5.460;2024-03-22T05:25:56;101525.09;;;10.01;100.00
58473;BME280;44775;51.564;5.460;2024-03-22T05:28:21;101529.97;;;10.05;100.00
58473;BME280;44775;51.564;5.460;2024-03-22T05:30:46;101517.91;;;10.01;100.00
58473;BME280;44775;51.564;5.460;2024-03-22T05:33:12;101520.59;;;10.01;100.00
58473;BME280;44775;51.564;5.460;2024-03-22T05:35:37;101527.59;;;10.02;100.00
58473;BME280;44775;51.564;5.460;2024-03-22T05:38:02;101521.34;;;9.93;100.00
58473;BME280;44775;51.564;5.460;2024-03-22T05:40:28;101529.19;;;9.95;100.00
58473;BME280;44775;51.564;5.460;2024-03-22T05:42:53;101521.53;;;10.10;100.00
58473;BME280;44775;51.564;5.460;2024-03-22T05:45:18;101523.25;;;10.01;100.00
58473;BME280;44775;51.564;5.460;2024-03-22T05:47:43;101514.56;;;9.99;100.00
58473;BME280;44775;51.564;5.460;2024-03-22T05:50:09;101512.28;;;10.04;100.00
58473;BME280;44775;51.564;5.460;2024-03-22T05:52:34;101516.38;;;9.99;100.00
58473;BME280;44775;51.564;5.460;2024-03-22T05:54:59;101516.53;;;9.97;100.00
58473;BME280;44775;51.564;5.460;2024-03-22T05:57:24;101509.38;;;9.98;100.00
58473;BME280;44775;51.564;5.460;2024-03-22T05:59:50;101516.38;;;9.99;100.00
58473;BME280;44775;51.564;5.460;2024-03-22T06:02:15;101500.53;;;9.97;100.00
58473;BME280;44775;51.564;5.460;2024-03-22T06:04:41;101505.03;;;9.97;100.00
58473;BME280;44775;51.564;5.460;2024-03-22T06:07:06;101509.41;;;10.15;100.00
58473;BME280;44775;51.564;5.460;2024-03-22T06:09:31;101513.72;;;9.99;100.00
58473;BME280;44775;51.564;5.460;2024-03-22T06:12:10;101516.19;;;10.10;100.00
58473;BME280;44775;51.564;5.460;2024-03-22T06:14:35;101514.56;;;9.99;100.00
58473;BME280;44775;51.564;5.460;2024-03-22T06:17:01;101520.00;;;10.07;100.00
58473;BME280;44775;51.564;5.460;2024-03-22T06:19:26;101516.50;;;10.07;100.00
58473;BME280;44775;51.564;5.460;2024-03-22T06:21:51;101510.56;;;10.13;100.00
58473;BME280;44775;51.564;5.460;2024-03-22T06:24:16;101519.53;;;10.12;100.00
58473;BME280;44775;51.564;5.460;2024-03-22T06:26:42;101503.97;;;10.07;100.00
58473;BME280;44775;51.564;5.460;2024-03-22T06:29:07;101505.50;;;10.10;100.00
58473;BME280;44775;51.564;5.460;2024-03-22T06:31:32;101502.56;;;10.13;100.00
58473;BME280;44775;51.564;5.460;2024-03-22T06:33:57;101509.56;;;10.14;100.00
58473;BME280;44775;51.564;5.460;2024-03-22T06:36:27;101507.34;;;10.09;100.00
58473;BME280;44775;51.564;5.460;2024-03-22T06:38:52;101507.72;;;10.14;100.00
58473;BME280;44775;51.564;5.460;2024-03-22T06:41:17;101513.91;;;10.15;100.00
58473;BME280;44775;51.564;5.460;2024-03-22T06:43:43;101505.59;;;10.18;100.00
58473;BME280;44775;51.564;5.460;2024-03-22T06:46:08;101505.59;;;10.18;100.00
58473;BME280;44775;51.564;5.460;2024-03-22T06:48:33;101508.66;;;10.23;100.00
58473;BME280;44775;51.564;5.460;2024-03-22T06:50:58;101509.41;;;10.15;100.00
58473;BME280;44775;51.564;5.460;2024-03-22T06:53:23;101500.78;;;10.22;100.00
58473;BME280;44775;51.564;5.460;2024-03-22T06:55:49;101506.94;;;10.32;100.00
58473;BME280;44775;51.564;5.460;2024-03-22T06:58:14;101507.03;;;10.40;100.00
58473;BME280;44775;51.564;5.460;2024-03-22T07:00:39;101516.91;;;10.39;100.00
58473;BME280;44775;51.564;5.460;2024-03-22T07:03:04;101510.69;;;10.39;100.00
58473;BME280;44775;51.564;5.460;2024-03-22T07:05:29;101507.13;;;10.48;100.00
58473;BME280;44775;51.564;5.460;2024-03-22T07:07:55;101502.69;;;10.57;100.00
58473;BME280;44775;51.564;5.460;2024-03-22T07:10:22;101499.97;;;10.67;100.00
58473;BME280;44775;51.564;5.460;2024-03-22T07:12:49;101497.59;;;10.63;100.00
58473;BME280;44775;51.564;5.460;2024-03-22T07:15:15;101502.78;;;10.65;100.00
58473;BME280;44775;51.564;5.460;2024-03-22T07:17:40;101499.50;;;10.71;100.00
58473;BME280;44775;51.564;5.460;2024-03-22T07:20:05;101503.22;;;10.78;100.00
58473;BME280;44775;51.564;5.460;2024-03-22T07:22:31;101509.25;;;10.98;100.00
58473;BME280;44775;51.564;5.460;2024-03-22T07:24:56;101507.34;;;10.91;100.00
58473;BME280;44775;51.564;5.460;2024-03-22T07:27:21;101505.41;;;11.01;100.00
58473;BME280;44775;51.564;5.460;2024-03-22T07:29:47;101507.66;;;11.14;100.00
58473;BME280;44775;51.564;5.460;2024-03-22T07:32:12;101503.28;;;11.30;100.00
58473;BME280;44775;51.564;5.460;2024-03-22T07:34:37;101501.97;;;11.08;100.00
58473;BME280;44775;51.564;5.460;2024-03-22T07:37:02;101501.88;;;11.18;100.00
58473;BME280;44775;51.564;5.460;2024-03-22T07:39:29;101506.69;;;11.15;100.00
58473;BME280;44775;51.564;5.460;2024-03-22T07:41:54;101497.41;;;11.27;100.00
58473;BME280;44775;51.564;5.460;2024-03-22T07:44:19;101495.19;;;11.22;100.00
58473;BME280;44775;51.564;5.460;2024-03-22T07:46:45;101507.34;;;11.34;100.00
58473;BME280;44775;51.564;5.460;2024-03-22T07:49:11;101506.88;;;11.47;100.00
58473;BME280;44775;51.564;5.460;2024-03-22T07:51:36;101502.19;;;11.41;100.00
58473;BME280;44775;51.564;5.460;2024-03-22T07:54:02;101498.41;;;11.52;100.00
58473;BME280;44775;51.564;5.460;2024-03-22T07:56:27;101507.53;;;11.41;100.00
58473;BME280;44775;51.564;5.460;2024-03-22T07:58:53;101509.31;;;11.58;100.00
58473;BME280;44775;51.564;5.460;2024-03-22T08:01:18;101508.06;;;11.79;100.00
58473;BME280;44775;51.564;5.460;2024-03-22T08:03:43;101502.91;;;11.51;100.00
58473;BME280;44775;51.564;5.460;2024-03-22T08:06:08;101491.00;;;11.46;100.00
58473;BME280;44775;51.564;5.460;2024-03-22T08:08:33;101499.56;;;11.49;100.00
58473;BME280;44775;51.564;5.460;2024-03-22T08:10:59;101494.88;;;11.51;100.00
58473;BME280;44775;51.564;5.460;2024-03-22T08:13:24;101502.91;;;11.51;100.00
58473;BME280;44775;51.564;5.460;2024-03-22T08:15:49;101501.16;;;11.34;100.00
58473;BME280;44775;51.564;5.460;2024-03-22T08:18:14;101503.91;;;11.50;100.00
58473;BME280;44775;51.564;5.460;2024-03-22T08:20:39;101501.59;;;11.55;100.00
58473;BME280;44775;51.564;5.460;2024-03-22T08:23:05;101499.97;;;11.63;100.00
58473;BME280;44775;51.564;5.460;2024-03-22T08:25:30;101508.63;;;11.56;100.00
58473;BME280;44775;51.564;5.460;2024-03-22T08:27:56;101502.25;;;11.57;100.00
58473;BME280;44775;51.564;5.460;2024-03-22T08:30:21;101503.59;;;11.53;100.00
58473;BME280;44775;51.564;5.460;2024-03-22T08:32:47;101507.47;;;11.59;100.00
58473;BME280;44775;51.564;5.460;2024-03-22T08:35:12;101502.03;;;11.43;100.00
58473;BME280;44775;51.564;5.460;2024-03-22T08:37:38;101500.19;;;11.43;100.00
58473;BME280;44775;51.564;5.460;2024-03-22T08:40:03;101496.56;;;11.52;100.00
58473;BME280;44775;51.564;5.460;2024-03-22T08:42:29;101497.56;;;11.51;100.00
58473;BME280;44775;51.564;5.460;2024-03-22T08:44:54;101502.13;;;11.59;100.00
58473;BME280;44775;51.564;5.460;2024-03-22T08:47:20;101503.31;;;11.65;100.00
58473;BME280;44775;51.564;5.460;2024-03-22T08:49:45;101493.47;;;11.65;100.00
58473;BME280;44775;51.564;5.460;2024-03-22T08:52:11;101490.91;;;11.64;100.00
58473;BME280;44775;51.564;5.460;2024-03-22T08:54:36;101481.59;;;11.68;100.00
58473;BME280;44775;51.564;5.460;2024-03-22T08:57:01;101479.97;;;11.83;100.00
58473;BME280;44775;51.564;5.460;2024-03-22T08:59:26;101479.38;;;11.63;100.00
58473;BME280;44775;51.564;5.460;2024-03-22T09:01:52;101489.41;;;11.61;100.00
58473;BME280;44775;51.564;5.460;2024-03-22T09:04:17;101482.44;;;11.68;100.00
58473;BME280;44775;51.564;5.460;2024-03-22T09:06:42;101481.59;;;11.68;100.00
58473;BME280;44775;51.564;5.460;2024-03-22T09:09:07;101482.69;;;11.57;100.00
58473;BME280;44775;51.564;5.460;2024-03-22T09:11:33;101485.53;;;11.55;100.00
58473;BME280;44775;51.564;5.460;2024-03-22T09:13:58;101488.41;;;11.62;100.00
58473;BME280;44775;51.564;5.460;2024-03-22T09:16:23;101481.44;;;11.43;100.00
58473;BME280;44775;51.564;5.460;2024-03-22T09:18:49;101479.22;;;11.65;100.00
58473;BME280;44775;51.564;5.460;2024-03-22T09:21:14;101478.34;;;11.56;100.00
58473;BME280;44775;51.564;5.460;2024-03-22T09:23:39;101477.66;;;11.54;100.00
58473;BME280;44775;51.564;5.460;2024-03-22T09:26:04;101485.31;;;11.83;100.00
58473;BME280;44775;51.564;5.460;2024-03-22T09:28:30;101482.25;;;11.70;100.00
58473;BME280;44775;51.564;5.460;2024-03-22T09:30:55;101479.63;;;11.78;100.00
58473;BME280;44775;51.564;5.460;2024-03-22T09:33:21;101474.03;;;11.97;100.00
58473;BME280;44775;51.564;5.460;2024-03-22T09:35:46;101473.06;;;12.07;100.00
58473;BME280;44775;51.564;5.460;2024-03-22T09:38:11;101471.03;;;12.00;100.00
58473;BME280;44775;51.564;5.460;2024-03-22T09:40:40;101458.97;;;11.96;100.00
58473;BME280;44775;51.564;5.460;2024-03-22T09:43:06;101462.66;;;12.03;100.00
58473;BME280;44775;51.564;5.460;2024-03-22T09:45:31;101456.66;;;12.01;100.00
58473;BME280;44775;51.564;5.460;2024-03-22T09:47:57;101455.91;;;11.91;100.00
58473;BME280;44775;51.564;5.460;2024-03-22T09:50:23;101458.28;;;11.94;100.00
58473;BME280;44775;51.564;5.460;2024-03-22T09:52:48;101462.66;;;12.03;100.00
58473;BME280;44775;51.564;5.460;2024-03-22T09:55:13;101456.28;;;12.04;100.00
58473;BME280;44775;51.564;5.460;2024-03-22T09:57:39;101461.81;;;11.95;100.00
58473;BME280;44775;51.564;5.460;2024-03-22T10:00:07;101454.81;;;12.10;100.00
58473;BME280;44775;51.564;5.460;2024-03-22T10:02:33;101452.31;;;12.09;100.00
58473;BME280;44775;51.564;5.460;2024-03-22T10:04:58;101450.34;;;12.43;100.00
58473;BME280;44775;51.564;5.460;2024-03-22T10:07:24;101446.13;;;12.24;100.00
58473;BME280;44775;51.564;5.460;2024-03-22T10:09:51;101447.78;;;12.17;100.00
58473;BME280;44775;51.564;5.460;2024-03-22T10:12:16;101456.03;;;12.32;100.00
58473;BME280;44775;51.564;5.460;2024-03-22T10:14:44;101444.47;;;12.32;100.00
58473;BME280;44775;51.564;5.460;2024-03-22T10:17:10;101443.81;;;12.46;100.00
58473;BME280;44775;51.564;5.460;2024-03-22T10:19:35;101437.09;;;12.42;100.00
58473;BME280;44775;51.564;5.460;2024-03-22T10:22:01;101433.25;;;12.44;100.00
58473;BME280;44775;51.564;5.460;2024-03-22T10:24:27;101455.38;;;12.55;100.00
58473;BME280;44775;51.564;5.460;2024-03-22T10:26:52;101440.81;;;12.57;100.00
58473;BME280;44775;51.564;5.460;2024-03-22T10:29:17;101443.31;;;12.59;100.00
58473;BME280;44775;51.564;5.460;2024-03-22T10:31:43;101448.34;;;12.70;100.00
58473;BME280;44775;51.564;5.460;2024-03-22T10:34:08;101443.66;;;12.39;100.00
58473;BME280;44775;51.564;5.460;2024-03-22T10:36:34;101433.91;;;12.38;100.00
58473;BME280;44775;51.564;5.460;2024-03-22T10:38:59;101436.25;;;12.41;100.00
58473;BME280;44775;51.564;5.460;2024-03-22T10:41:25;101428.41;;;12.56;100.00
58473;BME280;44775;51.564;5.460;2024-03-22T10:43:51;101446.00;;;12.42;100.00
58473;BME280;44775;51.564;5.460;2024-03-22T10:46:16;101440.31;;;12.53;100.00
58473;BME280;44775;51.564;5.460;2024-03-22T10:48:44;101457.38;;;12.36;100.00
58473;BME280;44775;51.564;5.460;2024-03-22T10:51:10;101448.66;;;12.34;100.00
58473;BME280;44775;51.564;5.460;2024-03-22T10:53:35;101448.47;;;12.27;100.00
58473;BME280;44775;51.564;5.460;2024-03-22T10:56:01;101452.00;;;12.28;100.00
58473;BME280;44775;51.564;5.460;2024-03-22T10:58:27;101450.84;;;12.31;100.00
58473;BME280;44775;51.564;5.460;2024-03-22T11:00:52;101442.56;;;12.08;100.00
58473;BME280;44775;51.564;5.460;2024-03-22T11:03:21;101439.56;;;12.02;100.00
58473;BME280;44775;51.564;5.460;2024-03-22T11:05:48;101448.63;;;12.18;100.00
58473;BME280;44775;51.564;5.460;2024-03-22T11:08:22;101441.91;;;12.14;100.00
58473;BME280;44775;51.564;5.460;2024-03-22T11:10:48;101441.44;;;12.26;100.00
58473;BME280;44775;51.564;5.460;2024-03-22T11:13:15;101443.41;;;12.00;100.00
58473;BME280;44775;51.564;5.460;2024-03-22T11:15:41;101427.38;;;12.16;100.00
58473;BME280;44775;51.564;5.460;2024-03-22T11:18:06;101426.50;;;11.99;100.00
58473;BME280;44775;51.564;5.460;2024-03-22T11:20:32;101438.72;;;12.10;100.00
58473;BME280;44775;51.564;5.460;2024-03-22T11:23:00;101446.63;;;12.20;100.00
58473;BME280;44775;51.564;5.460;2024-03-22T11:25:26;101434.91;;;12.21;100.00
58473;BME280;44775;51.564;5.460;2024-03-22T11:27:51;101440.72;;;12.08;100.00
58473;BME280;44775;51.564;5.460;2024-03-22T11:30:17;101433.53;;;12.00;100.00
58473;BME280;44775;51.564;5.460;2024-03-22T11:32:43;101442.53;;;11.91;100.00
58473;BME280;44775;51.564;5.460;2024-03-22T11:35:10;101436.19;;;12.00;100.00
58473;BME280;44775;51.564;5.460;2024-03-22T11:37:36;101431.84;;;11.99;100.00
58473;BME280;44775;51.564;5.460;2024-03-22T11:40:02;101430.00;;;12.08;100.00
58473;BME280;44775;51.564;5.460;2024-03-22T11:42:30;101432.53;;;12.10;100.00
58473;BME280;44775;51.564;5.460;2024-03-22T11:44:56;101424.44;;;11.85;100.00
58473;BME280;44775;51.564;5.460;2024-03-22T11:47:21;101418.91;;;11.87;100.00
58473;BME280;44775;51.564;5.460;2024-03-22T11:49:46;101415.22;;;11.88;100.00
58473;BME280;44775;51.564;5.460;2024-03-22T11:52:11;101411.25;;;12.00;100.00
58473;BME280;44775;51.564;5.460;2024-03-22T11:54:39;101406.44;;;12.12;100.00
58473;BME280;44775;51.564;5.460;2024-03-22T11:57:04;101397.88;;;12.08;100.00
58473;BME280;44775;51.564;5.460;2024-03-22T11:59:30;101406.72;;;11.92;100.00
58473;BME280;44775;51.564;5.460;2024-03-22T12:01:55;101394.38;;;12.16;100.00
58473;BME280;44775;51.564;5.460;2024-03-22T12:04:20;101396.53;;;11.96;100.00
58473;BME280;44775;51.564;5.460;2024-03-22T12:06:45;101390.50;;;12.10;100.00
58473;BME280;44775;51.564;5.460;2024-03-22T12:09:11;101390.38;;;12.20;100.00
58473;BME280;44775;51.564;5.460;2024-03-22T12:11:38;101392.00;;;11.96;100.00
58473;BME280;44775;51.564;5.460;2024-03-22T12:14:03;101373.91;;;11.90;100.00
58473;BME280;44775;51.564;5.460;2024-03-22T12:16:29;101368.53;;;11.90;100.00
58473;BME280;44775;51.564;5.460;2024-03-22T12:18:54;101370.34;;;11.81;100.00
58473;BME280;44775;51.564;5.460;2024-03-22T12:21:19;101362.03;;;11.50;100.00
58473;BME280;44775;51.564;5.460;2024-03-22T12:23:44;101357.88;;;11.56;100.00
58473;BME280;44775;51.564;5.460;2024-03-22T12:26:09;101358.94;;;11.71;100.00
58473;BME280;44775;51.564;5.460;2024-03-22T12:28:35;101347.22;;;11.80;100.00
58473;BME280;44775;51.564;5.460;2024-03-22T12:31:00;101353.78;;;11.78;100.00